sensor_id;sensor_type;location;lat;lon;timestamp;pressure;altitude;pressure_sealevel;temperature;humidity
76434;BME280;65265;53.200;6.080;2023-06-05T00:00:12;102503.69;;;11.77;84.39
76434;BME280;65265;53.200;6.080;2023-06-05T00:05:06;102493.63;;;11.80;84.38
76434;BME280;65265;53.200;6.080;2023-06-05T00:09:59;102502.13;;;11.79;85.49
76434;BME280;65265;53.200;6.080;2023-06-05T00:14:50;102498.97;;;11.83;85.19
76434;BME280;65265;53.200;6.080;2023-06-05T00:19:42;102505.25;;;11.88;84.75
76434;BME280;65265;53.200;6.080;2023-06-05T00:24:34;102505.25;;;11.88;84.66
76434;BME280;65265;53.200;6.080;2023-06-05T00:29:26;102500.09;;;11.88;84.99
76434;BME280;65265;53.200;6.080;2023-06-05T00:34:17;102496.84;;;11.91;85.62
76434;BME280;65265;53.200;6.080;2023-06-05T00:39:09;102491.91;;;11.93;85.74
76434;BME280;65265;53.200;6.080;2023-06-05T00:44:02;102492.25;;;11.99;85.71
76434;BME280;65265;53.200;6.080;2023-06-05T00:48:54;102498.38;;;12.01;85.38
76434;BME280;65265;53.200;6.080;2023-06-05T00:53:47;102478.84;;;12.03;85.28
76434;BME280;65265;53.200;6.080;2023-06-05T00:58:38;102492.91;;;12.10;84.68
76434;BME280;65265;53.200;6.080;2023-06-05T01:03:31;102494.06;;;12.15;85.10
76434;BME280;65265;53.200;6.080;2023-06-05T01:08:25;102482.94;;;12.14;84.85
76434;BME280;65265;53.200;6.080;2023-06-05T01:13:23;102483.78;;;12.15;84.84
76434;BME280;65265;53.200;6.080;2023-06-05T01:18:15;102486.56;;;12.18;84.98
76434;BME280;65265;53.200;6.080;2023-06-05T01:23:13;102484.06;;;12.19;84.95
76434;BME280;65265;53.200;6.080;2023-06-05T01:28:08;102475.56;;;12.20;85.35
76434;BME280;65265;53.200;6.080;2023-06-05T01:33:07;102479.03;;;12.21;86.06
76434;BME280;65265;53.200;6.080;2023-06-05T01:38:04;102474.00;;;12.22;86.52
76434;BME280;65265;53.200;6.080;2023-06-05T01:42:58;102466.22;;;12.21;87.24
76434;BME280;65265;53.200;6.080;2023-06-05T01:47:50;102460.97;;;12.19;87.57
76434;BME280;65265;53.200;6.080;2023-06-05T01:52:44;102461.16;;;12.08;87.79
76434;BME280;65265;53.200;6.080;2023-06-05T01:57:36;102461.16;;;12.08;87.04
76434;BME280;65265;53.200;6.080;2023-06-05T02:02:29;102460.19;;;12.06;87.00
76434;BME280;65265;53.200;6.080;2023-06-05T02:07:20;102456.56;;;12.02;87.41
76434;BME280;65265;53.200;6.080;2023-06-05T02:12:12;102453.09;;;12.02;86.84
76434;BME280;65265;53.200;6.080;2023-06-05T02:17:05;102449.66;;;12.01;86.57
76434;BME280;65265;53.200;6.080;2023-06-05T02:21:58;102458.16;;;12.00;86.21
76434;BME280;65265;53.200;6.080;2023-06-05T02:26:49;102460.19;;;12.06;86.20
76434;BME280;65265;53.200;6.080;2023-06-05T02:31:41;102454.53;;;12.11;86.57
76434;BME280;65265;53.200;6.080;2023-06-05T02:36:33;102453.03;;;12.15;85.52
76434;BME280;65265;53.200;6.080;2023-06-05T02:41:26;102457.63;;;12.20;86.00
76434;BME280;65265;53.200;6.080;2023-06-05T02:46:18;102456.94;;;12.23;85.79
76434;BME280;65265;53.200;6.080;2023-06-05T02:51:09;102454.25;;;12.21;85.49
76434;BME280;65265;53.200;6.080;2023-06-05T02:56:01;102453.91;;;12.15;85.17
76434;BME280;65265;53.200;6.080;2023-06-05T03:00:54;102452.44;;;12.19;86.28
76434;BME280;65265;53.200;6.080;2023-06-05T03:05:46;102452.16;;;12.14;86.26
76434;BME280;65265;53.200;6.080;2023-06-05T03:10:37;102454.44;;;12.10;86.51
76434;BME280;65265;53.200;6.080;2023-06-05T03:15:29;102445.94;;;12.11;85.96
76434;BME280;65265;53.200;6.080;2023-06-05T03:20:21;102450.91;;;12.08;85.83
76434;BME280;65265;53.200;6.080;2023-06-05T03:25:13;102449.16;;;12.07;85.34
76434;BME280;65265;53.200;6.080;2023-06-05T03:30:06;102447.03;;;12.14;85.34
76434;BME280;65265;53.200;6.080;2023-06-05T03:34:59;102444.00;;;12.21;85.91
76434;BME280;65265;53.200;6.080;2023-06-05T03:39:51;102428.81;;;12.24;85.24
76434;BME280;65265;53.200;6.080;2023-06-05T03:44:43;102437.38;;;12.25;85.12
76434;BME280;65265;53.200;6.080;2023-06-05T03:49:34;102434.81;;;12.25;85.11
76434;BME280;65265;53.200;6.080;2023-06-05T03:54:26;102438.16;;;12.24;85.11
76434;BME280;65265;53.200;6.080;2023-06-05T03:59:19;102437.38;;;12.25;84.30
76434;BME280;65265;53.200;6.080;2023-06-05T04:04:12;102432.78;;;12.19;83.12
76434;BME280;65265;53.200;6.080;2023-06-05T04:09:04;102433.66;;;12.20;82.38
76434;BME280;65265;53.200;6.080;2023-06-05T04:14:01;102435.44;;;12.21;82.92
76434;BME280;65265;53.200;6.080;2023-06-05T04:18:54;102432.97;;;12.22;82.68
76434;BME280;65265;53.200;6.080;2023-06-05T04:23:46;102439.06;;;12.24;82.40
76434;BME280;65265;53.200;6.080;2023-06-05T04:28:37;102440.91;;;12.27;82.27
76434;BME280;65265;53.200;6.080;2023-06-05T04:33:29;102443.84;;;12.33;81.26
76434;BME280;65265;53.200;6.080;2023-06-05T04:38:22;102440.63;;;12.37;81.89
76434;BME280;65265;53.200;6.080;2023-06-05T04:43:14;102445.97;;;12.40;81.33
76434;BME280;65265;53.200;6.080;2023-06-05T04:48:05;102441.19;;;12.46;81.22
76434;BME280;65265;53.200;6.080;2023-06-05T04:52:57;102447.47;;;12.51;80.79
76434;BME280;65265;53.200;6.080;2023-06-05T04:57:50;102443.56;;;12.57;80.30
76434;BME280;65265;53.200;6.080;2023-06-05T05:02:41;102437.53;;;12.57;80.96
76434;BME280;65265;53.200;6.080;2023-06-05T05:07:33;102446.47;;;12.63;79.78
76434;BME280;65265;53.200;6.080;2023-06-05T05:12:25;102433.72;;;12.65;79.84
76434;BME280;65265;53.200;6.080;2023-06-05T05:17:18;102440.19;;;12.73;79.79
76434;BME280;65265;53.200;6.080;2023-06-05T05:22:10;102445.59;;;12.77;79.74
76434;BME280;65265;53.200;6.080;2023-06-05T05:27:02;102449.38;;;12.84;78.64
76434;BME280;65265;53.200;6.080;2023-06-05T05:31:54;102440.38;;;12.92;79.17
76434;BME280;65265;53.200;6.080;2023-06-05T05:36:47;102447.84;;;13.02;78.65
76434;BME280;65265;53.200;6.080;2023-06-05T05:41:38;102442.97;;;13.06;77.90
76434;BME280;65265;53.200;6.080;2023-06-05T05:46:30;102440.91;;;13.15;78.65
76434;BME280;65265;53.200;6.080;2023-06-05T05:51:21;102446.53;;;13.24;78.14
76434;BME280;65265;53.200;6.080;2023-06-05T05:56:15;102451.84;;;13.27;76.68
76434;BME280;65265;53.200;6.080;2023-06-05T06:01:06;102444.94;;;13.26;77.28
76434;BME280;65265;53.200;6.080;2023-06-05T06:05:58;102448.81;;;13.34;77.54
76434;BME280;65265;53.200;6.080;2023-06-05T06:10:49;102454.97;;;13.38;76.22
76434;BME280;65265;53.200;6.080;2023-06-05T06:15:42;102462.06;;;13.42;76.07
76434;BME280;65265;53.200;6.080;2023-06-05T06:20:34;102460.81;;;13.50;76.04
76434;BME280;65265;53.200;6.080;2023-06-05T06:25:26;102464.34;;;13.52;76.31
76434;BME280;65265;53.200;6.080;2023-06-05T06:30:19;102465.03;;;13.65;75.58
76434;BME280;65265;53.200;6.080;2023-06-05T06:35:13;102453.81;;;13.79;73.36
76434;BME280;65265;53.200;6.080;2023-06-05T06:40:06;102459.34;;;13.87;74.92
76434;BME280;65265;53.200;6.080;2023-06-05T06:44:59;102460.16;;;13.86;74.40
76434;BME280;65265;53.200;6.080;2023-06-05T06:49:50;102451.13;;;13.94;75.80
76434;BME280;65265;53.200;6.080;2023-06-05T06:54:43;102463.03;;;13.92;75.25
76434;BME280;65265;53.200;6.080;2023-06-05T06:59:35;102456.44;;;13.97;75.82
76434;BME280;65265;53.200;6.080;2023-06-05T07:04:27;102456.59;;;14.00;74.81
76434;BME280;65265;53.200;6.080;2023-06-05T07:09:18;102465.44;;;14.21;73.87
76434;BME280;65265;53.200;6.080;2023-06-05T07:14:11;102463.16;;;14.60;73.33
76434;BME280;65265;53.200;6.080;2023-06-05T07:19:03;102461.88;;;15.04;72.00
76434;BME280;65265;53.200;6.080;2023-06-05T07:23:55;102470.31;;;15.00;69.89
76434;BME280;65265;53.200;6.080;2023-06-05T07:28:46;102472.03;;;15.19;69.25
76434;BME280;65265;53.200;6.080;2023-06-05T07:33:41;102463.09;;;15.11;69.88
76434;BME280;65265;53.200;6.080;2023-06-05T07:38:33;102462.34;;;15.13;69.55
76434;BME280;65265;53.200;6.080;2023-06-05T07:43:25;102461.94;;;15.23;68.39
76434;BME280;65265;53.200;6.080;2023-06-05T07:48:16;102463.88;;;15.45;68.29
76434;BME280;65265;53.200;6.080;2023-06-05T07:53:09;102467.22;;;15.61;68.46
76434;BME280;65265;53.200;6.080;2023-06-05T07:58:00;102465.97;;;15.91;66.87
76434;BME280;65265;53.200;6.080;2023-06-05T08:02:52;102469.44;;;16.11;66.90
76434;BME280;65265;53.200;6.080;2023-06-05T08:07:43;102468.53;;;16.29;66.45
76434;BME280;65265;53.200;6.080;2023-06-05T08:12:36;102463.41;;;16.31;65.59
76434;BME280;65265;53.200;6.080;2023-06-05T08:17:28;102466.50;;;16.03;67.45
76434;BME280;65265;53.200;6.080;2023-06-05T08:22:20;102467.00;;;16.34;65.63
76434;BME280;65265;53.200;6.080;2023-06-05T08:27:12;102461.16;;;16.38;66.06
76434;BME280;65265;53.200;6.080;2023-06-05T08:32:06;102471.75;;;16.44;64.58
76434;BME280;65265;53.200;6.080;2023-06-05T08:36:57;102471.13;;;16.50;63.09
76434;BME280;65265;53.200;6.080;2023-06-05T08:41:50;102475.44;;;16.30;64.20
76434;BME280;65265;53.200;6.080;2023-06-05T08:46:45;102467.50;;;16.45;61.97
76434;BME280;65265;53.200;6.080;2023-06-05T08:51:40;102466.53;;;16.84;63.27
76434;BME280;65265;53.200;6.080;2023-06-05T08:56:33;102451.63;;;17.20;62.34
76434;BME280;65265;53.200;6.080;2023-06-05T09:01:26;102445.28;;;17.80;61.00
76434;BME280;65265;53.200;6.080;2023-06-05T09:06:20;102448.09;;;17.86;60.21
76434;BME280;65265;53.200;6.080;2023-06-05T09:11:23;102444.03;;;17.92;62.54
76434;BME280;65265;53.200;6.080;2023-06-05T09:16:15;102443.63;;;18.29;61.61
76434;BME280;65265;53.200;6.080;2023-06-05T09:21:11;102448.56;;;18.48;60.85
76434;BME280;65265;53.200;6.080;2023-06-05T09:26:02;102446.53;;;18.91;58.14
76434;BME280;65265;53.200;6.080;2023-06-05T09:30:59;102448.44;;;18.70;58.76
76434;BME280;65265;53.200;6.080;2023-06-05T09:36:05;102445.75;;;18.67;59.34
76434;BME280;65265;53.200;6.080;2023-06-05T09:41:04;102437.72;;;18.33;59.94
76434;BME280;65265;53.200;6.080;2023-06-05T09:45:55;102441.09;;;18.57;59.18
76434;BME280;65265;53.200;6.080;2023-06-05T09:50:48;102444.00;;;18.66;58.65
76434;BME280;65265;53.200;6.080;2023-06-05T09:55:40;102442.53;;;18.47;60.04
76434;BME280;65265;53.200;6.080;2023-06-05T10:00:32;102435.50;;;18.20;61.60
76434;BME280;65265;53.200;6.080;2023-06-05T10:05:24;102442.78;;;18.30;60.41
76434;BME280;65265;53.200;6.080;2023-06-05T10:10:18;102437.69;;;18.58;59.49
76434;BME280;65265;53.200;6.080;2023-06-05T10:15:10;102432.66;;;18.89;58.43
76434;BME280;65265;53.200;6.080;2023-06-05T10:20:03;102434.16;;;19.09;55.99
76434;BME280;65265;53.200;6.080;2023-06-05T10:24:58;102435.88;;;19.65;55.53
76434;BME280;65265;53.200;6.080;2023-06-05T10:30:20;102426.59;;;19.73;54.62
76434;BME280;65265;53.200;6.080;2023-06-05T10:35:33;102418.50;;;20.60;53.30
76434;BME280;65265;53.200;6.080;2023-06-05T10:40:29;102423.88;;;21.03;53.20
76434;BME280;65265;53.200;6.080;2023-06-05T10:45:32;102415.84;;;20.23;54.45
76434;BME280;65265;53.200;6.080;2023-06-05T10:50:28;102416.91;;;21.01;52.63
76434;BME280;65265;53.200;6.080;2023-06-05T10:55:22;102412.56;;;21.01;51.71
76434;BME280;65265;53.200;6.080;2023-06-05T11:00:15;102404.88;;;21.47;49.99
76434;BME280;65265;53.200;6.080;2023-06-05T11:05:11;102404.47;;;22.15;50.32
76434;BME280;65265;53.200;6.080;2023-06-05T11:10:07;102401.66;;;22.50;47.95
76434;BME280;65265;53.200;6.080;2023-06-05T11:14:59;102407.78;;;22.54;49.68
76434;BME280;65265;53.200;6.080;2023-06-05T11:19:52;102397.69;;;22.76;46.91
76434;BME280;65265;53.200;6.080;2023-06-05T11:24:44;102404.81;;;22.85;47.32
76434;BME280;65265;53.200;6.080;2023-06-05T11:29:37;102398.34;;;23.17;47.31
76434;BME280;65265;53.200;6.080;2023-06-05T11:34:28;102407.75;;;22.51;48.46
76434;BME280;65265;53.200;6.080;2023-06-05T11:39:20;102410.34;;;23.06;47.66
76434;BME280;65265;53.200;6.080;2023-06-05T11:44:14;102399.66;;;22.89;46.39
76434;BME280;65265;53.200;6.080;2023-06-05T11:49:05;102398.50;;;23.30;46.67
76434;BME280;65265;53.200;6.080;2023-06-05T11:53:57;102385.09;;;23.06;46.41
76434;BME280;65265;53.200;6.080;2023-06-05T11:58:49;102383.91;;;23.49;46.19
76434;BME280;65265;53.200;6.080;2023-06-05T12:03:42;102389.81;;;23.33;44.69
76434;BME280;65265;53.200;6.080;2023-06-05T12:08:34;102390.53;;;23.93;44.88
76434;BME280;65265;53.200;6.080;2023-06-05T12:13:45;102389.22;;;23.55;44.37
76434;BME280;65265;53.200;6.080;2023-06-05T12:18:36;102390.56;;;23.23;45.68
76434;BME280;65265;53.200;6.080;2023-06-05T12:23:29;102384.00;;;24.40;44.06
76434;BME280;65265;53.200;6.080;2023-06-05T12:28:23;102388.47;;;24.54;42.95
76434;BME280;65265;53.200;6.080;2023-06-05T12:33:16;102382.59;;;24.86;42.82
76434;BME280;65265;53.200;6.080;2023-06-05T12:38:08;102383.84;;;24.22;43.28
76434;BME280;65265;53.200;6.080;2023-06-05T12:43:00;102386.53;;;24.34;43.84
76434;BME280;65265;53.200;6.080;2023-06-05T12:47:52;102376.69;;;25.20;42.92
76434;BME280;65265;53.200;6.080;2023-06-05T12:52:44;102378.63;;;24.25;44.04
76434;BME280;65265;53.200;6.080;2023-06-05T12:57:36;102379.88;;;23.78;43.95
76434;BME280;65265;53.200;6.080;2023-06-05T13:02:29;102366.88;;;23.82;43.68
76434;BME280;65265;53.200;6.080;2023-06-05T13:07:22;102363.88;;;23.48;45.06
76434;BME280;65265;53.200;6.080;2023-06-05T13:12:13;102359.56;;;24.39;44.03
76434;BME280;65265;53.200;6.080;2023-06-05T13:17:05;102366.13;;;23.94;43.71
76434;BME280;65265;53.200;6.080;2023-06-05T13:21:57;102349.56;;;23.92;43.71
76434;BME280;65265;53.200;6.080;2023-06-05T13:26:49;102348.44;;;22.96;46.04
76434;BME280;65265;53.200;6.080;2023-06-05T13:31:40;102343.06;;;23.54;45.35
76434;BME280;65265;53.200;6.080;2023-06-05T13:36:32;102343.75;;;23.38;45.61
76434;BME280;65265;53.200;6.080;2023-06-05T13:41:25;102340.69;;;23.75;45.15
76434;BME280;65265;53.200;6.080;2023-06-05T13:46:17;102336.09;;;23.54;46.29
76434;BME280;65265;53.200;6.080;2023-06-05T13:51:08;102337.38;;;23.91;45.15
76434;BME280;65265;53.200;6.080;2023-06-05T13:56:00;102340.22;;;24.16;43.73
76434;BME280;65265;53.200;6.080;2023-06-05T14:00:53;102342.91;;;24.27;42.84
76434;BME280;65265;53.200;6.080;2023-06-05T14:05:45;102343.94;;;24.51;42.91
76434;BME280;65265;53.200;6.080;2023-06-05T14:10:36;102340.44;;;24.48;43.07
76434;BME280;65265;53.200;6.080;2023-06-05T14:15:30;102337.00;;;24.52;41.86
76434;BME280;65265;53.200;6.080;2023-06-05T14:20:24;102337.94;;;24.60;40.91
76434;BME280;65265;53.200;6.080;2023-06-05T14:25:15;102336.91;;;24.38;40.80
76434;BME280;65265;53.200;6.080;2023-06-05T14:30:07;102327.53;;;23.67;43.04
76434;BME280;65265;53.200;6.080;2023-06-05T14:34:59;102332.31;;;24.10;42.76
76434;BME280;65265;53.200;6.080;2023-06-05T14:39:51;102331.50;;;24.17;42.59
76434;BME280;65265;53.200;6.080;2023-06-05T14:44:43;102320.50;;;23.63;42.07
76434;BME280;65265;53.200;6.080;2023-06-05T14:49:34;102326.91;;;23.88;43.60
76434;BME280;65265;53.200;6.080;2023-06-05T14:54:26;102332.28;;;24.04;43.11
76434;BME280;65265;53.200;6.080;2023-06-05T14:59:18;102331.22;;;23.87;42.07
76434;BME280;65265;53.200;6.080;2023-06-05T15:04:10;102325.94;;;23.07;43.91
76434;BME280;65265;53.200;6.080;2023-06-05T15:09:02;102329.84;;;21.70;47.38
76434;BME280;65265;53.200;6.080;2023-06-05T15:13:54;102332.47;;;22.76;45.44
76434;BME280;65265;53.200;6.080;2023-06-05T15:18:47;102313.97;;;22.60;44.47
76434;BME280;65265;53.200;6.080;2023-06-05T15:23:38;102313.25;;;22.70;45.58
76434;BME280;65265;53.200;6.080;2023-06-05T15:28:30;102312.25;;;21.58;46.84
76434;BME280;65265;53.200;6.080;2023-06-05T15:33:21;102307.69;;;22.46;46.98
76434;BME280;65265;53.200;6.080;2023-06-05T15:38:14;102313.38;;;22.77;46.48
76434;BME280;65265;53.200;6.080;2023-06-05T15:43:07;102306.19;;;22.61;45.45
76434;BME280;65265;53.200;6.080;2023-06-05T15:47:58;102305.50;;;22.18;45.80
76434;BME280;65265;53.200;6.080;2023-06-05T15:52:50;102299.97;;;21.97;45.94
76434;BME280;65265;53.200;6.080;2023-06-05T15:57:43;102303.19;;;22.37;46.52
76434;BME280;65265;53.200;6.080;2023-06-05T16:02:35;102295.88;;;22.14;46.18
76434;BME280;65265;53.200;6.080;2023-06-05T16:07:26;102299.69;;;21.82;46.96
76434;BME280;65265;53.200;6.080;2023-06-05T16:12:18;102291.47;;;21.61;46.32
76434;BME280;65265;53.200;6.080;2023-06-05T16:17:11;102288.34;;;21.34;46.64
76434;BME280;65265;53.200;6.080;2023-06-05T16:22:02;102287.78;;;21.49;47.51
76434;BME280;65265;53.200;6.080;2023-06-05T16:26:54;102288.25;;;21.28;46.63
76434;BME280;65265;53.200;6.080;2023-06-05T16:31:45;102298.94;;;21.43;47.19
76434;BME280;65265;53.200;6.080;2023-06-05T16:36:39;102295.22;;;21.31;47.80
76434;BME280;65265;53.200;6.080;2023-06-05T16:41:30;102288.34;;;21.34;47.08
76434;BME280;65265;53.200;6.080;2023-06-05T16:46:22;102288.31;;;20.88;47.45
76434;BME280;65265;53.200;6.080;2023-06-05T16:51:13;102280.22;;;20.76;46.98
76434;BME280;65265;53.200;6.080;2023-06-05T16:56:07;102278.06;;;20.20;50.83
76434;BME280;65265;53.200;6.080;2023-06-05T17:00:59;102283.72;;;20.03;49.60
76434;BME280;65265;53.200;6.080;2023-06-05T17:05:51;102280.38;;;19.13;52.16
76434;BME280;65265;53.200;6.080;2023-06-05T17:10:42;102276.59;;;19.31;52.11
76434;BME280;65265;53.200;6.080;2023-06-05T17:15:35;102277.31;;;19.26;51.74
76434;BME280;65265;53.200;6.080;2023-06-05T17:20:26;102277.50;;;19.04;52.05
76434;BME280;65265;53.200;6.080;2023-06-05T17:25:18;102281.19;;;19.41;52.82
76434;BME280;65265;53.200;6.080;2023-06-05T17:30:10;102276.56;;;19.62;51.43
76434;BME280;65265;53.200;6.080;2023-06-05T17:35:06;102277.75;;;19.11;51.96
76434;BME280;65265;53.200;6.080;2023-06-05T17:39:57;102273.22;;;18.75;53.46
76434;BME280;65265;53.200;6.080;2023-06-05T17:44:48;102272.34;;;18.74;53.20
76434;BME280;65265;53.200;6.080;2023-06-05T17:49:40;102265.97;;;18.35;54.64
76434;BME280;65265;53.200;6.080;2023-06-05T17:54:33;102273.69;;;18.34;54.13
76434;BME280;65265;53.200;6.080;2023-06-05T17:59:25;102276.53;;;17.90;56.00
76434;BME280;65265;53.200;6.080;2023-06-05T18:04:16;102273.66;;;17.56;57.49
76434;BME280;65265;53.200;6.080;2023-06-05T18:09:07;102264.22;;;17.58;56.90
76434;BME280;65265;53.200;6.080;2023-06-05T18:14:01;102271.06;;;17.56;56.93
76434;BME280;65265;53.200;6.080;2023-06-05T18:18:52;102270.88;;;17.50;57.85
76434;BME280;65265;53.200;6.080;2023-06-05T18:23:44;102268.72;;;17.38;57.89
76434;BME280;65265;53.200;6.080;2023-06-05T18:28:35;102266.75;;;17.08;58.33
76434;BME280;65265;53.200;6.080;2023-06-05T18:33:30;102268.66;;;16.90;58.57
76434;BME280;65265;53.200;6.080;2023-06-05T18:38:23;102275.03;;;16.54;59.38
76434;BME280;65265;53.200;6.080;2023-06-05T18:43:14;102280.13;;;16.53;60.27
76434;BME280;65265;53.200;6.080;2023-06-05T18:48:06;102286.78;;;16.26;59.93
76434;BME280;65265;53.200;6.080;2023-06-05T18:52:59;102281.94;;;15.92;61.95
76434;BME280;65265;53.200;6.080;2023-06-05T18:57:51;102295.75;;;15.72;62.35
76434;BME280;65265;53.200;6.080;2023-06-05T19:02:42;102293.31;;;15.56;63.63
76434;BME280;65265;53.200;6.080;2023-06-05T19:07:34;102285.50;;;15.34;63.40
76434;BME280;65265;53.200;6.080;2023-06-05T19:12:27;102302.00;;;15.01;64.67
76434;BME280;65265;53.200;6.080;2023-06-05T19:17:19;102295.88;;;14.80;65.64
76434;BME280;65265;53.200;6.080;2023-06-05T19:22:10;102286.09;;;14.54;66.49
76434;BME280;65265;53.200;6.080;2023-06-05T19:27:02;102291.75;;;14.47;66.73
76434;BME280;65265;53.200;6.080;2023-06-05T19:31:55;102294.66;;;14.36;67.38
76434;BME280;65265;53.200;6.080;2023-06-05T19:36:46;102302.66;;;14.25;67.48
76434;BME280;65265;53.200;6.080;2023-06-05T19:41:38;102302.00;;;14.11;68.87
76434;BME280;65265;53.200;6.080;2023-06-05T19:46:29;102307.09;;;13.94;69.02
76434;BME280;65265;53.200;6.080;2023-06-05T19:51:23;102305.63;;;13.81;69.33
76434;BME280;65265;53.200;6.080;2023-06-05T19:56:14;102307.63;;;13.71;70.05
76434;BME280;65265;53.200;6.080;2023-06-05T20:01:07;102311.44;;;13.61;70.53
76434;BME280;65265;53.200;6.080;2023-06-05T20:05:58;102310.72;;;13.48;70.94
76434;BME280;65265;53.200;6.080;2023-06-05T20:10:51;102308.91;;;13.29;72.27
76434;BME280;65265;53.200;6.080;2023-06-05T20:15:43;102317.75;;;13.18;72.43
76434;BME280;65265;53.200;6.080;2023-06-05T20:20:34;102320.47;;;13.05;72.89
76434;BME280;65265;53.200;6.080;2023-06-05T20:25:26;102324.66;;;13.03;73.32
76434;BME280;65265;53.200;6.080;2023-06-05T20:30:24;102330.88;;;12.92;74.27
76434;BME280;65265;53.200;6.080;2023-06-05T20:35:17;102334.56;;;12.81;74.07
76434;BME280;65265;53.200;6.080;2023-06-05T20:40:11;102329.63;;;12.70;74.75
76434;BME280;65265;53.200;6.080;2023-06-05T20:45:04;102329.31;;;12.64;74.99
76434;BME280;65265;53.200;6.080;2023-06-05T20:49:59;102328.78;;;12.55;75.43
76434;BME280;65265;53.200;6.080;2023-06-05T20:54:51;102321.53;;;12.48;75.71
76434;BME280;65265;53.200;6.080;2023-06-05T20:59:42;102325.66;;;12.30;76.84
76434;BME280;65265;53.200;6.080;2023-06-05T21:04:34;102321.63;;;12.19;77.26
76434;BME280;65265;53.200;6.080;2023-06-05T21:09:27;102311.69;;;12.10;77.43
76434;BME280;65265;53.200;6.080;2023-06-05T21:14:18;102318.78;;;12.00;77.94
76434;BME280;65265;53.200;6.080;2023-06-05T21:19:10;102312.28;;;11.91;78.30
76434;BME280;65265;53.200;6.080;2023-06-05T21:24:01;102315.09;;;11.81;78.83
76434;BME280;65265;53.200;6.080;2023-06-05T21:28:54;102320.59;;;11.72;79.66
76434;BME280;65265;53.200;6.080;2023-06-05T21:33:46;102318.63;;;11.68;79.43
76434;BME280;65265;53.200;6.080;2023-06-05T21:38:37;102319.31;;;11.66;79.41
76434;BME280;65265;53.200;6.080;2023-06-05T21:43:28;102308.03;;;11.62;79.87
76434;BME280;65265;53.200;6.080;2023-06-05T21:48:22;102311.28;;;11.60;80.32
76434;BME280;65265;53.200;6.080;2023-06-05T21:53:17;102311.59;;;11.51;81.36
76434;BME280;65265;53.200;6.080;2023-06-05T21:58:08;102306.38;;;11.50;80.94
76434;BME280;65265;53.200;6.080;2023-06-05T22:03:00;102306.00;;;11.44;81.62
76434;BME280;65265;53.200;6.080;2023-06-05T22:07:53;102305.56;;;11.36;82.68
76434;BME280;65265;53.200;6.080;2023-06-05T22:12:46;102313.75;;;11.31;83.11
76434;BME280;65265;53.200;6.080;2023-06-05T22:17:38;102314.28;;;11.25;83.47
76434;BME280;65265;53.200;6.080;2023-06-05T22:22:30;102314.00;;;11.21;83.53
76434;BME280;65265;53.200;6.080;2023-06-05T22:27:22;102316.72;;;11.09;82.90
76434;BME280;65265;53.200;6.080;2023-06-05T22:32:14;102321.66;;;11.06;83.16
76434;BME280;65265;53.200;6.080;2023-06-05T22:37:07;102329.13;;;11.03;84.95
76434;BME280;65265;53.200;6.080;2023-06-05T22:42:01;102318.81;;;11.02;84.56
76434;BME280;65265;53.200;6.080;2023-06-05T22:46:54;102328.59;;;10.94;84.38
76434;BME280;65265;53.200;6.080;2023-06-05T22:51:46;102323.19;;;10.90;84.77
76434;BME280;65265;53.200;6.080;2023-06-05T22:56:39;102319.44;;;10.85;84.75
76434;BME280;65265;53.200;6.080;2023-06-05T23:01:30;102330.47;;;10.84;84.73
76434;BME280;65265;53.200;6.080;2023-06-05T23:06:24;102332.94;;;10.82;85.27
76434;BME280;65265;53.200;6.080;2023-06-05T23:11:19;102335.13;;;10.76;85.55
76434;BME280;65265;53.200;6.080;2023-06-05T23:16:10;102329.59;;;10.70;86.33
76434;BME280;65265;53.200;6.080;2023-06-05T23:21:02;102329.59;;;10.70;85.84
76434;BME280;65265;53.200;6.080;2023-06-05T23:25:55;102327.84;;;10.69;85.54
76434;BME280;65265;53.200;6.080;2023-06-05T23:30:47;102325.91;;;10.65;85.55
76434;BME280;65265;53.200;6.080;2023-06-05T23:35:38;102319.00;;;10.64;85.81
76434;BME280;65265;53.200;6.080;2023-06-05T23:40:30;102314.91;;;10.53;85.71
76434;BME280;65265;53.200;6.080;2023-06-05T23:45:23;102321.19;;;10.45;87.25
76434;BME280;65265;53.200;6.080;2023-06-05T23:50:14;102322.59;;;10.40;87.79
76434;BME280;65265;53.200;6.080;2023-06-05T23:55:07;102314.22;;;10.30;87.88
76434;BME280;65265;53.200;6.080;2023-06-05T23:59:59;102317.19;;;10.23;88.79
